Time;durP1;ratioP1;P1;durP2;ratioP2;P2;SDS_P1;SDS_P2;PMS_P1;PMS_P2;Temp;Humidity;BMP_temperature;BMP_pressure;BME280_temperature;BME280_humidity;BME280_pressure;Samples;Min_cycle;Max_cycle;Signal;HPM_P1;HPM_P2
2023/01/23 00:00:40;;;;;;;2.65;2.20;;;;;;;;;;5005723;28;20312;-47
2023/01/23 00:03:06;;;;;;;2.53;2.20;;;;;;;;;;5010460;28;20195;-47
2023/01/23 00:05:32;;;;;;;3.33;2.25;;;;;;;;;;5007524;28;20185;-47
2023/01/23 00:07:58;;;;;;;2.30;2.10;;;;;;;;;;5015524;28;20342;-47
2023/01/23 00:10:24;;;;;;;3.00;2.38;;;;;;;;;;5014604;28;20189;-47
2023/01/23 00:12:52;;;;;;;2.25;2.05;;;;;;;;;;5015429;28;20176;-47
2023/01/23 00:15:18;;;;;;;2.65;2.30;;;;;;;;;;5019549;28;20460;-47
2023/01/23 00:17:44;;;;;;;2.78;2.25;;;;;;;;;;5009815;28;20192;-47
2023/01/23 00:20:10;;;;;;;2.55;2.33;;;;;;;;;;5010569;28;20199;-47
2023/01/23 00:22:36;;;;;;;2.55;2.30;;;;;;;;;;5012647;28;20571;-47
2023/01/23 00:25:02;;;;;;;2.20;2.00;;;;;;;;;;5012838;28;20223;-47
2023/01/23 00:27:28;;;;;;;1.95;1.73;;;;;;;;;;5013493;28;20258;-47
2023/01/23 00:29:55;;;;;;;2.25;2.05;;;;;;;;;;5012266;28;20208;-47
2023/01/23 00:32:21;;;;;;;2.85;2.20;;;;;;;;;;5013292;28;20184;-47
2023/01/23 00:34:47;;;;;;;2.50;2.25;;;;;;;;;;5014661;28;20181;-48
2023/01/23 00:37:13;;;;;;;2.40;2.10;;;;;;;;;;5013714;28;20256;-47
2023/01/23 00:39:39;;;;;;;2.00;1.90;;;;;;;;;;5014632;28;20582;-47
2023/01/23 00:42:05;;;;;;;2.35;2.15;;;;;;;;;;5014690;28;20188;-48
2023/01/23 00:44:31;;;;;;;2.25;2.05;;;;;;;;;;5013916;28;20189;-47
2023/01/23 00:46:57;;;;;;;2.10;1.90;;;;;;;;;;5015415;28;20460;-48
2023/01/23 00:49:23;;;;;;;2.20;2.00;;;;;;;;;;5014721;28;20216;-47
2023/01/23 00:51:49;;;;;;;2.17;1.98;;;;;;;;;;5014582;28;20184;-47
2023/01/23 00:54:16;;;;;;;2.13;1.92;;;;;;;;;;5009999;28;20406;-47
2023/01/23 00:56:42;;;;;;;2.40;2.20;;;;;;;;;;5012188;28;20231;-47
2023/01/23 00:59:08;;;;;;;2.05;1.85;;;;;;;;;;5012611;28;20234;-47
2023/01/23 01:01:33;;;;;;;3.25;2.30;;;;;;;;;;5014087;28;20224;-47
2023/01/23 01:04:00;;;;;;;2.22;1.80;;;;;;;;;;5004375;28;20271;-47
2023/01/23 01:06:26;;;;;;;2.20;2.00;;;;;;;;;;5006397;28;20192;-47
2023/01/23 01:08:52;;;;;;;1.95;1.80;;;;;;;;;;5012729;28;20203;-47
2023/01/23 01:11:18;;;;;;;2.08;1.80;;;;;;;;;;5006905;28;20196;-47
2023/01/23 01:13:44;;;;;;;2.40;1.90;;;;;;;;;;5004155;28;20263;-47
2023/01/23 01:16:10;;;;;;;2.13;1.92;;;;;;;;;;5014450;28;20270;-47
2023/01/23 01:18:37;;;;;;;1.85;1.75;;;;;;;;;;5011759;28;20180;-47
2023/01/23 01:21:10;;;;;;;2.35;2.10;;;;;;;;;;5000350;28;20239;-48
2023/01/23 01:23:37;;;;;;;2.67;2.00;;;;;;;;;;5009929;28;20483;-48
2023/01/23 01:26:04;;;;;;;2.40;1.95;;;;;;;;;;5010336;28;20196;-47
2023/01/23 01:28:31;;;;;;;2.08;1.98;;;;;;;;;;5012445;28;20200;-47
2023/01/23 01:30:58;;;;;;;2.85;2.10;;;;;;;;;;5011790;28;20211;-47
2023/01/23 01:33:24;;;;;;;2.20;2.00;;;;;;;;;;5005077;28;20260;-47
2023/01/23 01:35:50;;;;;;;2.38;2.00;;;;;;;;;;5012154;28;20173;-47
2023/01/23 01:38:16;;;;;;;2.63;2.30;;;;;;;;;;5015125;28;20418;-47
2023/01/23 01:40:42;;;;;;;2.25;1.88;;;;;;;;;;5013040;28;20199;-47
2023/01/23 01:43:15;;;;;;;2.25;2.05;;;;;;;;;;5014734;28;20709;-48
2023/01/23 01:45:59;;;;;;;2.08;1.88;;;;;;;;;;5010801;28;20192;-48
2023/01/23 01:48:37;;;;;;;2.45;2.03;;;;;;;;;;5012945;28;20227;-47
2023/01/23 01:51:06;;;;;;;2.13;1.92;;;;;;;;;;5011139;28;20230;-47
2023/01/23 01:53:33;;;;;;;2.00;1.80;;;;;;;;;;5013669;28;20586;-47
2023/01/23 01:55:59;;;;;;;2.05;1.88;;;;;;;;;;5012020;28;20185;-47
2023/01/23 01:58:25;;;;;;;2.30;2.00;;;;;;;;;;5005762;28;20189;-47
2023/01/23 02:00:51;;;;;;;2.78;2.53;;;;;;;;;;5000600;28;20188;-47
2023/01/23 02:03:18;;;;;;;2.10;1.90;;;;;;;;;;5008764;28;20244;-47
2023/01/23 02:05:45;;;;;;;2.35;2.13;;;;;;;;;;5001257;28;20188;-47
2023/01/23 02:08:24;;;;;;;2.60;2.40;;;;;;;;;;5003809;28;20263;-47
2023/01/23 02:10:51;;;;;;;2.50;2.30;;;;;;;;;;5011714;28;20215;-47
2023/01/23 02:13:34;;;;;;;2.28;2.08;;;;;;;;;;5012218;28;20180;-47
2023/01/23 02:16:02;;;;;;;3.15;2.08;;;;;;;;;;5012074;28;20197;-47
2023/01/23 02:18:29;;;;;;;2.28;2.08;;;;;;;;;;5011605;28;20184;-47
2023/01/23 02:20:56;;;;;;;2.75;2.47;;;;;;;;;;5011315;28;20200;-47
2023/01/23 02:23:25;;;;;;;2.20;2.10;;;;;;;;;;5014250;28;20483;-47
2023/01/23 02:25:52;;;;;;;2.25;2.10;;;;;;;;;;5011854;28;20234;-47
2023/01/23 02:28:18;;;;;;;2.55;2.33;;;;;;;;;;5011772;28;20294;-47
2023/01/23 02:30:49;;;;;;;1.90;1.80;;;;;;;;;;5005080;28;20571;-47
2023/01/23 02:33:21;;;;;;;2.53;2.33;;;;;;;;;;5002177;28;20204;-47
2023/01/23 02:35:47;;;;;;;2.63;2.40;;;;;;;;;;5012493;28;20195;-47
2023/01/23 02:38:14;;;;;;;2.28;2.08;;;;;;;;;;5011906;28;20195;-47
2023/01/23 02:40:41;;;;;;;2.90;2.50;;;;;;;;;;5012537;28;20184;-47
2023/01/23 02:43:08;;;;;;;2.53;2.33;;;;;;;;;;5012654;28;20430;-47
2023/01/23 02:45:35;;;;;;;2.30;2.10;;;;;;;;;;5006747;28;20191;-47
2023/01/23 02:48:01;;;;;;;2.40;2.20;;;;;;;;;;5016285;28;20486;-47
2023/01/23 02:50:28;;;;;;;3.00;2.33;;;;;;;;;;5013280;28;20618;-47
2023/01/23 02:52:54;;;;;;;4.03;2.40;;;;;;;;;;5017345;28;20267;-47
2023/01/23 02:55:21;;;;;;;2.22;2.03;;;;;;;;;;5012264;28;20190;-47
2023/01/23 02:57:47;;;;;;;2.60;2.40;;;;;;;;;;5016386;28;20184;-47
2023/01/23 03:00:18;;;;;;;2.72;2.42;;;;;;;;;;5009746;28;20560;-47
2023/01/23 03:02:45;;;;;;;2.40;2.20;;;;;;;;;;5010262;28;20274;-47
2023/01/23 03:05:10;;;;;;;2.47;2.28;;;;;;;;;;5006049;28;20184;-48
2023/01/23 03:07:36;;;;;;;2.40;2.20;;;;;;;;;;5010153;28;20574;-48
2023/01/23 03:10:03;;;;;;;2.53;2.33;;;;;;;;;;5016479;28;20259;-48
2023/01/23 03:12:29;;;;;;;2.80;2.38;;;;;;;;;;5016401;28;20188;-48
2023/01/23 03:14:55;;;;;;;2.97;2.33;;;;;;;;;;5009766;28;20184;-48
2023/01/23 03:17:22;;;;;;;2.53;2.33;;;;;;;;;;5010604;28;20216;-47
2023/01/23 03:19:48;;;;;;;3.95;2.38;;;;;;;;;;5010929;28;20191;-48
2023/01/23 03:22:14;;;;;;;2.70;2.50;;;;;;;;;;5016901;28;20184;-48
2023/01/23 03:24:40;;;;;;;2.60;2.40;;;;;;;;;;5012866;28;20213;-48
2023/01/23 03:27:06;;;;;;;3.05;2.85;;;;;;;;;;5008405;28;20609;-48
2023/01/23 03:32:16;;;;;;;3.17;2.55;;;;;;;;;;5012983;28;20184;-48
2023/01/23 03:34:43;;;;;;;3.20;2.90;;;;;;;;;;5011872;28;20612;-48
2023/01/23 03:37:10;;;;;;;2.78;2.58;;;;;;;;;;5012798;28;20190;-48
2023/01/23 03:42:21;;;;;;;2.85;2.60;;;;;;;;;;5005321;28;20611;-47
2023/01/23 03:44:47;;;;;;;2.85;2.58;;;;;;;;;;5010813;28;20185;-47
2023/01/23 03:47:13;;;;;;;2.70;2.50;;;;;;;;;;5012147;28;20231;-47
2023/01/23 03:49:39;;;;;;;2.92;2.63;;;;;;;;;;5010589;28;20208;-47
2023/01/23 03:52:05;;;;;;;3.25;2.78;;;;;;;;;;5015712;28;20195;-48
2023/01/23 03:54:31;;;;;;;3.42;2.90;;;;;;;;;;5009285;28;20457;-48
2023/01/23 03:56:57;;;;;;;2.78;2.58;;;;;;;;;;5007160;28;20520;-48
2023/01/23 03:59:23;;;;;;;4.20;2.92;;;;;;;;;;5012903;28;20451;-48
2023/01/23 04:01:49;;;;;;;2.88;2.67;;;;;;;;;;5014038;28;20578;-47
2023/01/23 04:04:15;;;;;;;2.70;2.50;;;;;;;;;;5009573;28;20197;-47
2023/01/23 04:06:41;;;;;;;3.00;2.70;;;;;;;;;;5010188;28;20190;-47
2023/01/23 04:09:07;;;;;;;3.80;2.70;;;;;;;;;;5011862;28;20209;-47
2023/01/23 04:11:32;;;;;;;2.88;2.60;;;;;;;;;;5010901;28;20188;-47
2023/01/23 04:13:58;;;;;;;3.00;2.70;;;;;;;;;;5014346;28;20476;-47
2023/01/23 04:16:26;;;;;;;3.10;2.60;;;;;;;;;;5014080;28;20284;-49
2023/01/23 04:18:53;;;;;;;3.60;3.00;;;;;;;;;;5013711;28;20199;-47
2023/01/23 04:21:19;;;;;;;4.55;2.88;;;;;;;;;;5013787;28;20188;-49
2023/01/23 04:23:45;;;;;;;8.80;2.95;;;;;;;;;;5010887;28;20188;-51
2023/01/23 04:26:11;;;;;;;10.90;3.13;;;;;;;;;;5009899;28;20203;-46
2023/01/23 04:28:37;;;;;;;7.95;3.30;;;;;;;;;;5004740;28;20200;-46
2023/01/23 04:31:03;;;;;;;4.53;2.88;;;;;;;;;;5013381;28;20192;-46
2023/01/23 04:33:29;;;;;;;9.20;3.15;;;;;;;;;;5013620;28;20187;-45
2023/01/23 04:35:56;;;;;;;13.82;3.20;;;;;;;;;;5012349;28;20184;-44
2023/01/23 04:38:23;;;;;;;5.45;2.97;;;;;;;;;;5014029;28;20471;-44
2023/01/23 04:40:49;;;;;;;8.13;2.97;;;;;;;;;;5020004;28;20580;-44
2023/01/23 04:43:15;;;;;;;6.47;3.10;;;;;;;;;;5008428;28;20452;-44
2023/01/23 04:45:41;;;;;;;3.75;3.10;;;;;;;;;;5008055;28;20188;-44
2023/01/23 04:48:07;;;;;;;6.57;3.33;;;;;;;;;;5003089;28;20265;-44
2023/01/23 04:50:33;;;;;;;5.88;3.30;;;;;;;;;;5006339;28;20209;-44
2023/01/23 04:52:59;;;;;;;6.90;3.40;;;;;;;;;;5009870;28;20196;-50
2023/01/23 04:55:27;;;;;;;9.52;3.42;;;;;;;;;;5003698;28;20189;-46
2023/01/23 04:57:52;;;;;;;6.35;3.17;;;;;;;;;;5013370;28;20177;-46
2023/01/23 05:00:20;;;;;;;7.03;3.50;;;;;;;;;;5007814;28;20630;-46
2023/01/23 05:02:46;;;;;;;6.38;3.35;;;;;;;;;;5007606;28;20180;-46
2023/01/23 05:05:12;;;;;;;8.35;3.53;;;;;;;;;;5000679;28;20252;-46
2023/01/23 05:07:38;;;;;;;7.50;3.53;;;;;;;;;;5004332;28;20308;-46
2023/01/23 05:10:05;;;;;;;7.60;3.33;;;;;;;;;;5012962;28;20263;-46
2023/01/23 05:12:31;;;;;;;7.18;3.60;;;;;;;;;;5008537;28;20260;-46
2023/01/23 05:14:57;;;;;;;6.85;3.38;;;;;;;;;;5008332;28;20503;-46
2023/01/23 05:17:23;;;;;;;7.05;3.40;;;;;;;;;;5014146;28;20215;-46
2023/01/23 05:19:49;;;;;;;5.50;3.13;;;;;;;;;;5011150;28;20196;-46
2023/01/23 05:22:16;;;;;;;5.97;4.00;;;;;;;;;;5010663;28;20193;-46
2023/01/23 05:24:42;;;;;;;8.30;3.72;;;;;;;;;;5009492;28;20211;-46
2023/01/23 05:27:08;;;;;;;8.50;3.90;;;;;;;;;;5005684;28;20223;-46
2023/01/23 05:29:35;;;;;;;8.88;4.00;;;;;;;;;;5007193;28;20228;-46
2023/01/23 05:32:01;;;;;;;6.72;3.70;;;;;;;;;;5010168;28;20215;-46
2023/01/23 05:34:27;;;;;;;10.05;3.88;;;;;;;;;;5008885;28;20177;-46
2023/01/23 05:36:53;;;;;;;6.10;3.65;;;;;;;;;;5012886;28;20430;-46
2023/01/23 05:39:19;;;;;;;5.55;3.58;;;;;;;;;;5008529;28;20239;-46
2023/01/23 05:41:44;;;;;;;6.28;4.18;;;;;;;;;;5005922;28;20223;-46
2023/01/23 05:44:10;;;;;;;4.63;3.50;;;;;;;;;;5007410;28;20208;-46
2023/01/23 05:46:36;;;;;;;5.85;4.15;;;;;;;;;;5007351;28;20181;-46
2023/01/23 05:49:03;;;;;;;6.32;3.78;;;;;;;;;;5006595;28;20259;-46
2023/01/23 05:51:31;;;;;;;5.85;4.10;;;;;;;;;;5007981;28;20515;-46
2023/01/23 05:53:58;;;;;;;8.98;4.07;;;;;;;;;;5002769;28;20620;-46
2023/01/23 05:56:24;;;;;;;4.55;3.65;;;;;;;;;;5011292;28;20188;-47
2023/01/23 05:58:50;;;;;;;5.68;3.55;;;;;;;;;;5010580;28;20188;-46
2023/01/23 06:01:16;;;;;;;5.40;3.90;;;;;;;;;;4998501;28;20181;-46
2023/01/23 06:03:42;;;;;;;4.25;3.50;;;;;;;;;;5004783;28;21669;-46
2023/01/23 06:06:07;;;;;;;7.45;4.47;;;;;;;;;;5007514;28;20191;-46
2023/01/23 06:08:33;;;;;;;6.53;3.83;;;;;;;;;;5012626;28;20205;-46
2023/01/23 06:11:00;;;;;;;7.38;4.32;;;;;;;;;;5008260;28;20188;-47
2023/01/23 06:13:26;;;;;;;4.57;4.05;;;;;;;;;;5004260;28;20185;-46
2023/01/23 06:15:52;;;;;;;4.63;3.97;;;;;;;;;;5007970;28;20436;-46
2023/01/23 06:18:18;;;;;;;4.65;3.90;;;;;;;;;;5012795;28;20184;-47
2023/01/23 06:20:44;;;;;;;6.60;4.43;;;;;;;;;;4997979;28;20220;-46
2023/01/23 06:23:10;;;;;;;5.22;3.70;;;;;;;;;;5012785;28;20552;-46
2023/01/23 06:25:36;;;;;;;4.93;3.75;;;;;;;;;;5007618;28;20196;-46
2023/01/23 06:28:03;;;;;;;5.80;4.07;;;;;;;;;;5010625;28;20211;-46
2023/01/23 06:30:28;;;;;;;4.80;4.25;;;;;;;;;;5013684;28;20701;-46
2023/01/23 06:32:54;;;;;;;7.53;4.28;;;;;;;;;;5013325;28;20315;-46
2023/01/23 06:35:20;;;;;;;6.50;3.80;;;;;;;;;;5010075;28;20255;-46
2023/01/23 06:37:46;;;;;;;6.03;4.53;;;;;;;;;;5013538;28;20184;-46
2023/01/23 06:40:13;;;;;;;5.93;4.10;;;;;;;;;;5011277;28;20195;-46
2023/01/23 06:42:39;;;;;;;6.97;4.25;;;;;;;;;;5018096;28;20279;-46
2023/01/23 06:45:06;;;;;;;5.45;4.30;;;;;;;;;;5013608;28;20264;-46
2023/01/23 06:47:31;;;;;;;7.55;4.60;;;;;;;;;;5015002;28;20196;-46
2023/01/23 06:49:58;;;;;;;4.65;4.13;;;;;;;;;;5012456;28;20208;-46
2023/01/23 06:52:24;;;;;;;5.22;4.47;;;;;;;;;;5008730;28;20602;-46
2023/01/23 06:54:50;;;;;;;7.80;4.70;;;;;;;;;;5010330;28;20275;-46
2023/01/23 06:57:15;;;;;;;5.18;4.10;;;;;;;;;;5011526;28;20267;-46
2023/01/23 06:59:41;;;;;;;5.43;4.32;;;;;;;;;;5008114;28;20189;-46
2023/01/23 07:02:08;;;;;;;6.32;4.30;;;;;;;;;;5013174;28;20465;-46
2023/01/23 07:04:34;;;;;;;4.60;4.13;;;;;;;;;;5011785;28;20232;-47
2023/01/23 07:07:00;;;;;;;6.40;4.60;;;;;;;;;;5015053;28;20239;-46
2023/01/23 07:09:26;;;;;;;9.50;4.57;;;;;;;;;;5011614;28;20212;-46
2023/01/23 07:11:52;;;;;;;5.72;4.53;;;;;;;;;;5015882;28;20212;-46
2023/01/23 07:14:18;;;;;;;5.18;4.03;;;;;;;;;;5008176;28;20177;-46
2023/01/23 07:16:47;;;;;;;6.20;4.55;;;;;;;;;;5013418;28;20196;-46
2023/01/23 07:19:12;;;;;;;7.43;4.20;;;;;;;;;;5012289;28;20219;-46
2023/01/23 07:21:38;;;;;;;5.43;4.35;;;;;;;;;;5010652;28;20239;-46
2023/01/23 07:24:05;;;;;;;4.43;3.92;;;;;;;;;;5013800;28;20191;-46
2023/01/23 07:26:31;;;;;;;5.18;3.78;;;;;;;;;;5014776;28;20413;-46
2023/01/23 07:28:57;;;;;;;6.40;4.38;;;;;;;;;;5004380;28;20211;-46
2023/01/23 07:31:23;;;;;;;5.03;3.85;;;;;;;;;;5005436;28;20173;-46
2023/01/23 07:33:49;;;;;;;5.97;4.38;;;;;;;;;;5007852;28;20194;-46
2023/01/23 07:36:17;;;;;;;6.57;4.68;;;;;;;;;;5014311;28;20184;-46
2023/01/23 07:38:43;;;;;;;6.57;4.40;;;;;;;;;;5013236;28;20311;-46
2023/01/23 07:41:09;;;;;;;5.03;3.97;;;;;;;;;;5005072;28;20299;-46
2023/01/23 07:43:35;;;;;;;6.28;4.55;;;;;;;;;;5014568;28;20197;-46
2023/01/23 07:46:01;;;;;;;4.60;4.10;;;;;;;;;;5007934;28;20189;-46
2023/01/23 07:48:28;;;;;;;6.20;4.85;;;;;;;;;;5010491;28;20224;-46
2023/01/23 07:50:54;;;;;;;5.22;4.25;;;;;;;;;;5002687;28;20180;-46
2023/01/23 07:53:20;;;;;;;4.88;4.07;;;;;;;;;;5015324;28;20203;-47
2023/01/23 07:55:46;;;;;;;5.03;4.30;;;;;;;;;;5008172;28;20176;-46
2023/01/23 07:58:11;;;;;;;5.85;4.53;;;;;;;;;;5014299;28;20180;-46
2023/01/23 08:00:38;;;;;;;5.93;4.63;;;;;;;;;;5011419;28;20178;-47
2023/01/23 08:03:04;;;;;;;7.00;4.38;;;;;;;;;;5012398;28;20201;-46
2023/01/23 08:05:29;;;;;;;5.63;4.47;;;;;;;;;;5011737;28;20199;-46
2023/01/23 08:07:55;;;;;;;4.80;3.97;;;;;;;;;;5008100;28;20193;-46
2023/01/23 08:10:21;;;;;;;7.72;5.00;;;;;;;;;;5011031;28;20230;-46
2023/01/23 08:12:47;;;;;;;6.10;4.50;;;;;;;;;;5011640;28;20223;-46
2023/01/23 08:15:13;;;;;;;4.78;4.20;;;;;;;;;;5003488;28;20188;-46
2023/01/23 08:17:39;;;;;;;5.32;4.57;;;;;;;;;;5015103;28;20192;-46
2023/01/23 08:20:05;;;;;;;5.22;4.60;;;;;;;;;;5009260;28;20267;-46
2023/01/23 08:22:32;;;;;;;6.35;4.85;;;;;;;;;;5010712;28;20271;-46
2023/01/23 08:24:58;;;;;;;5.20;4.30;;;;;;;;;;5003691;28;20185;-47
2023/01/23 08:27:24;;;;;;;5.90;4.40;;;;;;;;;;5010721;28;20191;-46
2023/01/23 08:29:49;;;;;;;5.93;4.68;;;;;;;;;;5007463;28;20216;-46
2023/01/23 08:32:15;;;;;;;4.90;4.38;;;;;;;;;;5015537;28;20259;-46
2023/01/23 08:34:41;;;;;;;5.13;4.60;;;;;;;;;;5006348;28;20204;-46
2023/01/23 08:37:07;;;;;;;5.60;4.55;;;;;;;;;;5004984;28;20187;-46
2023/01/23 08:39:34;;;;;;;5.50;4.70;;;;;;;;;;5009560;28;20180;-46
2023/01/23 08:42:00;;;;;;;5.95;4.75;;;;;;;;;;5011414;28;20192;-46
2023/01/23 08:44:26;;;;;;;5.85;4.93;;;;;;;;;;5003091;28;20186;-46
2023/01/23 08:46:51;;;;;;;5.22;4.50;;;;;;;;;;5015683;28;20203;-46
2023/01/23 08:49:19;;;;;;;5.43;4.60;;;;;;;;;;5006653;28;20213;-46
2023/01/23 08:51:45;;;;;;;5.25;4.75;;;;;;;;;;5007915;28;20177;-46
2023/01/23 08:54:10;;;;;;;5.90;4.70;;;;;;;;;;5008045;28;20466;-46
2023/01/23 08:56:36;;;;;;;7.50;4.43;;;;;;;;;;5006553;28;20782;-46
2023/01/23 08:59:02;;;;;;;5.50;4.68;;;;;;;;;;5010022;28;20682;-47
2023/01/23 09:01:28;;;;;;;6.20;4.65;;;;;;;;;;5009419;28;20184;-46
2023/01/23 09:03:54;;;;;;;5.70;4.50;;;;;;;;;;5010050;28;20274;-46
2023/01/23 09:06:21;;;;;;;5.97;4.93;;;;;;;;;;5009728;28;20215;-46
2023/01/23 09:08:47;;;;;;;5.07;4.57;;;;;;;;;;5005884;28;20200;-47
2023/01/23 09:11:14;;;;;;;5.55;4.78;;;;;;;;;;5005099;28;20251;-47
2023/01/23 09:13:40;;;;;;;5.90;4.85;;;;;;;;;;5012978;28;20181;-46
2023/01/23 09:16:09;;;;;;;5.75;4.88;;;;;;;;;;5004506;28;20203;-46
2023/01/23 09:18:35;;;;;;;6.28;5.00;;;;;;;;;;5009140;28;20451;-46
2023/01/23 09:21:06;;;;;;;6.88;4.72;;;;;;;;;;5009600;28;20188;-46
2023/01/23 09:23:32;;;;;;;5.68;4.65;;;;;;;;;;5007254;28;20176;-46
2023/01/23 09:26:02;;;;;;;6.32;5.13;;;;;;;;;;5010711;28;20243;-46
2023/01/23 09:28:28;;;;;;;5.43;4.70;;;;;;;;;;5009583;28;20204;-46
2023/01/23 09:30:54;;;;;;;5.72;4.90;;;;;;;;;;5012348;28;20260;-46
2023/01/23 09:33:23;;;;;;;5.85;5.05;;;;;;;;;;5010692;28;20184;-46
2023/01/23 09:35:53;;;;;;;5.07;4.53;;;;;;;;;;5012256;28;20226;-47
2023/01/23 09:38:19;;;;;;;5.75;5.07;;;;;;;;;;5004995;28;20516;-47
2023/01/23 09:40:49;;;;;;;7.07;5.13;;;;;;;;;;5010413;28;20498;-47
2023/01/23 09:43:17;;;;;;;6.22;5.25;;;;;;;;;;5012112;28;20279;-47
2023/01/23 09:45:50;;;;;;;5.40;4.70;;;;;;;;;;5007928;28;20536;-47
2023/01/23 09:48:26;;;;;;;5.65;5.03;;;;;;;;;;5006249;28;20216;-47
2023/01/23 09:51:04;;;;;;;7.88;5.05;;;;;;;;;;5010952;28;20254;-47
2023/01/23 09:53:38;;;;;;;6.88;4.57;;;;;;;;;;5012150;28;20266;-47
2023/01/23 09:56:43;;;;;;;5.60;4.80;;;;;;;;;;5007200;28;20349;-47
2023/01/23 09:59:28;;;;;;;7.03;5.20;;;;;;;;;;4970401;28;20228;-46
2023/01/23 10:01:54;;;;;;;5.65;5.03;;;;;;;;;;4965465;28;20222;-46
2023/01/23 10:04:20;;;;;;;8.80;5.55;;;;;;;;;;4987406;28;20266;-46
2023/01/23 10:06:57;;;;;;;6.10;5.10;;;;;;;;;;5014411;28;20556;-46
2023/01/23 10:09:29;;;;;;;6.32;4.75;;;;;;;;;;5017616;28;20582;-46
2023/01/23 10:11:58;;;;;;;5.82;4.75;;;;;;;;;;5016137;28;20248;-46
2023/01/23 10:14:27;;;;;;;5.13;4.35;;;;;;;;;;5012813;28;20187;-46
2023/01/23 10:16:59;;;;;;;5.93;5.03;;;;;;;;;;5009833;28;20212;-46
2023/01/23 10:19:36;;;;;;;5.78;4.68;;;;;;;;;;5012329;28;20276;-47
2023/01/23 10:22:08;;;;;;;6.18;4.95;;;;;;;;;;5012650;28;20188;-47
2023/01/23 10:24:40;;;;;;;5.25;4.75;;;;;;;;;;5011572;28;20191;-47
2023/01/23 10:27:17;;;;;;;5.47;4.72;;;;;;;;;;5013250;28;20204;-47
2023/01/23 10:29:44;;;;;;;5.25;4.75;;;;;;;;;;5010303;28;20213;-47
2023/01/23 10:32:20;;;;;;;6.75;4.93;;;;;;;;;;5008830;28;20173;-46
2023/01/23 10:34:51;;;;;;;5.28;4.63;;;;;;;;;;5013215;28;20179;-46
2023/01/23 10:37:25;;;;;;;6.03;5.28;;;;;;;;;;5013984;28;20188;-46
2023/01/23 10:39:58;;;;;;;5.40;4.72;;;;;;;;;;5016693;28;20234;-46
2023/01/23 10:42:26;;;;;;;7.45;5.55;;;;;;;;;;5009814;28;20196;-46
2023/01/23 10:44:51;;;;;;;5.22;4.70;;;;;;;;;;5014272;28;20180;-46
2023/01/23 10:47:20;;;;;;;6.18;5.03;;;;;;;;;;5014905;28;20458;-46
2023/01/23 10:49:46;;;;;;;6.25;5.22;;;;;;;;;;5012127;28;20639;-46
2023/01/23 10:52:32;;;;;;;6.57;5.25;;;;;;;;;;5014322;28;20259;-46
2023/01/23 10:54:58;;;;;;;5.43;4.55;;;;;;;;;;5011382;28;20286;-46
2023/01/23 10:57:25;;;;;;;6.15;4.53;;;;;;;;;;5013369;28;20599;-46
2023/01/23 11:00:18;;;;;;;5.85;4.80;;;;;;;;;;5015503;28;20180;-46
2023/01/23 11:02:44;;;;;;;5.97;4.75;;;;;;;;;;5007021;28;20639;-47
2023/01/23 11:05:30;;;;;;;6.13;4.50;;;;;;;;;;5012683;28;20264;-47
2023/01/23 11:07:56;;;;;;;5.55;4.78;;;;;;;;;;5007208;28;20180;-46
2023/01/23 11:10:23;;;;;;;6.20;4.97;;;;;;;;;;5007674;28;20176;-46
2023/01/23 11:12:50;;;;;;;6.35;4.70;;;;;;;;;;5009997;28;20177;-47
2023/01/23 11:15:23;;;;;;;5.32;4.82;;;;;;;;;;5010115;28;20188;-46
2023/01/23 11:17:54;;;;;;;5.68;4.80;;;;;;;;;;5008600;28;20192;-46
2023/01/23 11:20:41;;;;;;;5.90;4.75;;;;;;;;;;5010356;28;20199;-46
2023/01/23 11:23:07;;;;;;;5.97;5.00;;;;;;;;;;5009635;28;20203;-46
2023/01/23 11:25:38;;;;;;;4.75;4.25;;;;;;;;;;5009945;28;20223;-46
2023/01/23 11:28:19;;;;;;;6.32;5.35;;;;;;;;;;5007155;28;20192;-47
2023/01/23 11:30:47;;;;;;;5.18;4.68;;;;;;;;;;5008413;28;20586;-46
2023/01/23 11:33:18;;;;;;;5.32;4.65;;;;;;;;;;5008927;28;20184;-47
2023/01/23 11:35:49;;;;;;;6.10;5.05;;;;;;;;;;5010685;28;20185;-47
2023/01/23 11:38:19;;;;;;;5.70;4.90;;;;;;;;;;5016057;28;20173;-47
2023/01/23 11:40:47;;;;;;;6.10;5.05;;;;;;;;;;5013620;28;20762;-47
2023/01/23 11:43:16;;;;;;;6.00;4.80;;;;;;;;;;5010859;28;20234;-47
2023/01/23 11:46:05;;;;;;;6.05;4.90;;;;;;;;;;5008014;28;20177;-47
2023/01/23 11:48:35;;;;;;;4.88;4.35;;;;;;;;;;5009666;28;20352;-47
2023/01/23 11:51:24;;;;;;;6.63;5.20;;;;;;;;;;5011319;28;20248;-47
2023/01/23 11:54:17;;;;;;;6.07;4.78;;;;;;;;;;5007875;28;20191;-47
2023/01/23 11:56:57;;;;;;;6.47;5.05;;;;;;;;;;5012295;28;20604;-47
2023/01/23 11:59:34;;;;;;;5.50;4.55;;;;;;;;;;5010639;28;20188;-47
2023/01/23 12:02:12;;;;;;;5.90;5.13;;;;;;;;;;5010076;28;20215;-48
2023/01/23 12:04:41;;;;;;;5.22;4.43;;;;;;;;;;5006546;28;20204;-48
2023/01/23 12:07:27;;;;;;;5.50;4.32;;;;;;;;;;5012737;28;20192;-47
2023/01/23 12:10:07;;;;;;;6.00;4.85;;;;;;;;;;4998602;28;20260;-47
2023/01/23 12:12:53;;;;;;;5.25;4.68;;;;;;;;;;5005746;28;20183;-47
2023/01/23 12:15:37;;;;;;;4.90;4.13;;;;;;;;;;5009868;28;20192;-47
2023/01/23 12:18:12;;;;;;;5.78;5.05;;;;;;;;;;5001226;28;20564;-48
2023/01/23 12:20:38;;;;;;;5.97;5.00;;;;;;;;;;5005953;28;20210;-48
2023/01/23 12:23:22;;;;;;;5.68;4.75;;;;;;;;;;5006572;28;20259;-48
2023/01/23 12:25:55;;;;;;;5.25;4.68;;;;;;;;;;4998364;28;20217;-47
2023/01/23 12:28:41;;;;;;;5.38;4.85;;;;;;;;;;5013867;28;20476;-48
2023/01/23 12:31:10;;;;;;;6.03;4.95;;;;;;;;;;5001389;28;20467;-48
2023/01/23 12:33:42;;;;;;;5.53;4.55;;;;;;;;;;5002847;28;20195;-47
2023/01/23 12:36:14;;;;;;;4.93;4.43;;;;;;;;;;4998021;28;20235;-47
2023/01/23 12:38:49;;;;;;;5.32;4.40;;;;;;;;;;5013995;28;20279;-47
2023/01/23 12:41:21;;;;;;;5.13;4.55;;;;;;;;;;5009262;28;20448;-47
2023/01/23 12:43:49;;;;;;;6.47;4.95;;;;;;;;;;5008786;28;20799;-47
2023/01/23 12:46:18;;;;;;;5.63;4.50;;;;;;;;;;5002529;28;20538;-47
2023/01/23 12:48:51;;;;;;;5.03;4.50;;;;;;;;;;5005010;28;20220;-47
2023/01/23 12:51:28;;;;;;;4.85;4.35;;;;;;;;;;5013747;28;20180;-47
2023/01/23 12:53:56;;;;;;;6.07;4.82;;;;;;;;;;5010345;28;20263;-47
2023/01/23 12:56:25;;;;;;;6.43;4.95;;;;;;;;;;5009580;28;20416;-47
2023/01/23 12:58:56;;;;;;;5.50;4.95;;;;;;;;;;5005069;28;20193;-47
2023/01/23 13:01:40;;;;;;;5.85;4.63;;;;;;;;;;5011434;28;20290;-47
2023/01/23 13:04:06;;;;;;;5.75;4.90;;;;;;;;;;5004021;28;20239;-48
2023/01/23 13:06:45;;;;;;;5.22;4.50;;;;;;;;;;5011114;28;20262;-47
2023/01/23 13:09:17;;;;;;;5.35;4.75;;;;;;;;;;5007288;28;20505;-47
2023/01/23 13:11:43;;;;;;;5.38;4.53;;;;;;;;;;5009900;28;20188;-47
2023/01/23 13:14:16;;;;;;;5.90;4.35;;;;;;;;;;5004884;28;20175;-47
2023/01/23 13:16:46;;;;;;;6.22;4.72;;;;;;;;;;5008731;28;20191;-48
2023/01/23 13:22:21;;;;;;;6.05;4.90;;;;;;;;;;5009328;28;20246;-47
2023/01/23 13:27:36;;;;;;;7.57;4.97;;;;;;;;;;5006824;28;20504;-47
2023/01/23 13:30:04;;;;;;;6.20;4.90;;;;;;;;;;5008045;28;20262;-47
2023/01/23 13:32:31;;;;;;;8.02;5.22;;;;;;;;;;5011309;28;20622;-47
2023/01/23 13:34:57;;;;;;;6.80;5.00;;;;;;;;;;5012605;28;20855;-47
2023/01/23 13:37:25;;;;;;;8.50;5.47;;;;;;;;;;5013750;28;20255;-47
2023/01/23 13:40:02;;;;;;;7.22;5.13;;;;;;;;;;5008970;28;20195;-47
2023/01/23 13:42:28;;;;;;;7.80;5.22;;;;;;;;;;5007660;28;20180;-47
2023/01/23 13:45:13;;;;;;;8.55;5.57;;;;;;;;;;5007266;28;20196;-48
2023/01/23 13:50:36;;;;;;;8.55;5.22;;;;;;;;;;5014692;28;20230;-47
2023/01/23 13:58:43;;;;;;;6.80;5.38;;;;;;;;;;5008564;28;20188;-47
2023/01/23 14:06:59;;;;;;;7.80;5.13;;;;;;;;;;5006207;28;20255;-47
2023/01/23 14:09:26;;;;;;;6.97;5.47;;;;;;;;;;5002890;28;20568;-47
2023/01/23 14:11:56;;;;;;;7.45;5.57;;;;;;;;;;5005805;28;20187;-47
2023/01/23 14:17:08;;;;;;;9.38;5.28;;;;;;;;;;5010151;28;20192;-47
2023/01/23 14:19:34;;;;;;;7.82;4.95;;;;;;;;;;5003562;28;20192;-47
2023/01/23 14:22:04;;;;;;;6.07;5.00;;;;;;;;;;5012483;28;20212;-47
2023/01/23 14:24:43;;;;;;;7.32;5.72;;;;;;;;;;5005246;28;20287;-47
2023/01/23 14:27:16;;;;;;;6.90;5.38;;;;;;;;;;5008647;28;20200;-47
2023/01/23 14:29:44;;;;;;;9.85;5.57;;;;;;;;;;5005073;28;20280;-49
2023/01/23 14:32:23;;;;;;;10.27;5.65;;;;;;;;;;5006256;28;20173;-49
2023/01/23 14:34:49;;;;;;;11.80;6.95;;;;;;;;;;5000195;28;20181;-49
2023/01/23 14:37:15;;;;;;;16.42;7.30;;;;;;;;;;5013203;28;20481;-49
2023/01/23 14:39:43;;;;;;;16.13;6.82;;;;;;;;;;5006699;28;20288;-49
2023/01/23 14:42:18;;;;;;;11.70;6.10;;;;;;;;;;5006737;28;20203;-49
2023/01/23 14:44:46;;;;;;;11.30;6.38;;;;;;;;;;5005463;28;20184;-49
2023/01/23 14:47:17;;;;;;;13.10;7.00;;;;;;;;;;5012684;28;20188;-49
2023/01/23 14:49:43;;;;;;;13.10;6.85;;;;;;;;;;5010469;28;20235;-49
2023/01/23 14:52:21;;;;;;;15.00;6.38;;;;;;;;;;5016195;28;20238;-49
2023/01/23 14:54:46;;;;;;;18.05;6.85;;;;;;;;;;5016110;28;20188;-49
2023/01/23 14:57:12;;;;;;;14.20;6.90;;;;;;;;;;5012276;28;20189;-49
2023/01/23 14:59:40;;;;;;;11.13;6.30;;;;;;;;;;5015239;28;20184;-49
2023/01/23 15:02:21;;;;;;;16.75;7.45;;;;;;;;;;5005083;28;20185;-49
2023/01/23 15:05:06;;;;;;;13.48;6.72;;;;;;;;;;5013768;28;20242;-49
2023/01/23 15:07:32;;;;;;;13.73;6.75;;;;;;;;;;5010099;28;20176;-49
2023/01/23 15:09:59;;;;;;;12.10;6.68;;;;;;;;;;5017177;28;20204;-49
2023/01/23 15:12:25;;;;;;;12.48;6.88;;;;;;;;;;5010206;28;20267;-49
2023/01/23 15:14:53;;;;;;;15.13;6.75;;;;;;;;;;5016394;28;20608;-49
2023/01/23 15:17:20;;;;;;;11.90;6.50;;;;;;;;;;5014464;28;20431;-50
2023/01/23 15:19:54;;;;;;;11.10;6.55;;;;;;;;;;5015289;28;20715;-49